createdAt,value
2018-09-10T00:01:16.427Z,14.80
2018-09-10T00:03:44.554Z,14.70
2018-09-10T00:06:12.959Z,14.60
2018-09-10T00:08:40.920Z,14.50
2018-09-10T00:11:31.553Z,14.50
2018-09-10T00:13:59.488Z,14.40
2018-09-10T00:16:27.729Z,14.30
2018-09-10T00:18:55.689Z,14.20
2018-09-10T00:21:23.607Z,14.20
2018-09-10T00:23:52.237Z,14.20
2018-09-10T00:26:20.182Z,14.30
2018-09-10T00:28:48.085Z,14.40
2018-09-10T00:31:16.018Z,14.40
2018-09-10T00:33:45.099Z,14.30
2018-09-10T00:36:13.605Z,14.30
2018-09-10T00:38:42.198Z,14.30
2018-09-10T00:41:10.102Z,14.30
2018-09-10T00:43:38.033Z,14.40
2018-09-10T00:46:06.700Z,14.30
2018-09-10T00:48:34.629Z,14.20
2018-09-10T00:51:02.592Z,14.20
2018-09-10T00:53:30.519Z,14.20
2018-09-10T00:55:59.181Z,14.20
2018-09-10T00:58:27.115Z,14.20
2018-09-10T01:00:55.005Z,14.10
2018-09-10T01:03:22.913Z,14.00
2018-09-10T01:05:50.822Z,13.90
2018-09-10T01:08:19.539Z,13.90
2018-09-10T01:10:47.474Z,13.90
2018-09-10T01:13:15.408Z,13.90
2018-09-10T01:15:43.728Z,13.90
2018-09-10T01:18:11.673Z,13.80
2018-09-10T01:20:39.652Z,13.90
2018-09-10T01:23:07.614Z,13.90
2018-09-10T01:25:35.985Z,13.90
2018-09-10T01:28:03.981Z,13.80
2018-09-10T01:30:31.941Z,13.80
2018-09-10T01:33:00.000Z,13.60
2018-09-10T01:35:31.813Z,13.70
2018-09-10T01:37:59.830Z,13.80
2018-09-10T01:40:27.814Z,13.70
2018-09-10T01:42:55.739Z,13.70
2018-09-10T01:45:23.603Z,13.80
2018-09-10T01:47:51.508Z,13.70
2018-09-10T01:50:19.504Z,13.60
2018-09-10T01:52:47.410Z,13.60
2018-09-10T01:55:15.970Z,13.60
2018-09-10T01:57:45.140Z,13.60
2018-09-10T02:00:13.081Z,13.50
2018-09-10T02:02:40.988Z,13.50
2018-09-10T02:05:08.975Z,13.40
2018-09-10T02:07:37.949Z,13.50
2018-09-10T02:10:06.334Z,13.50
2018-09-10T02:12:34.266Z,13.50
2018-09-10T02:15:02.171Z,13.50
2018-09-10T02:17:30.851Z,13.50
2018-09-10T02:19:58.735Z,13.30
2018-09-10T02:22:26.605Z,13.30
2018-09-10T02:24:54.484Z,13.40
2018-09-10T02:27:22.434Z,13.40
2018-09-10T02:29:50.494Z,13.40
2018-09-10T02:32:18.383Z,13.30
2018-09-10T02:34:46.951Z,13.30
2018-09-10T02:37:14.844Z,13.20
2018-09-10T02:39:42.809Z,13.10
2018-09-10T02:42:10.738Z,13.00
2018-09-10T02:44:39.389Z,13.00
2018-09-10T02:47:08.369Z,13.10
2018-09-10T02:49:36.285Z,13.10
2018-09-10T02:52:05.038Z,13.10
2018-09-10T02:54:33.053Z,13.00
2018-09-10T02:57:01.915Z,13.00
2018-09-10T02:59:30.508Z,12.90
2018-09-10T03:01:58.398Z,12.70
2018-09-10T03:04:26.419Z,12.60
2018-09-10T03:06:54.855Z,12.50
2018-09-10T03:09:22.929Z,12.60
2018-09-10T03:11:50.850Z,12.60
2018-09-10T03:14:19.641Z,12.70
2018-09-10T03:16:47.589Z,12.60
2018-09-10T03:19:16.845Z,12.60
2018-09-10T03:21:44.826Z,12.50
2018-09-10T03:24:13.778Z,12.50
2018-09-10T03:26:42.231Z,12.60
2018-09-10T03:29:10.156Z,12.60
2018-09-10T03:31:38.113Z,12.50
2018-09-10T03:34:06.225Z,12.40
2018-09-10T03:36:34.251Z,12.50
2018-09-10T03:39:02.323Z,12.50
2018-09-10T03:41:30.258Z,12.50
2018-09-10T03:43:58.183Z,12.40
2018-09-10T03:46:26.098Z,12.20
2018-09-10T03:48:53.983Z,12.20
2018-09-10T03:51:21.854Z,12.20
2018-09-10T03:53:50.293Z,12.10
2018-09-10T03:56:18.237Z,12.10
2018-09-10T03:58:46.129Z,12.00
2018-09-10T04:01:14.081Z,12.10
2018-09-10T04:03:42.331Z,12.10
2018-09-10T04:06:10.234Z,12.00
2018-09-10T04:08:38.688Z,12.10
2018-09-10T04:11:06.653Z,12.20
2018-09-10T04:13:34.594Z,12.00
2018-09-10T04:16:02.606Z,11.90
2018-09-10T04:18:30.638Z,11.80
2018-09-10T04:20:58.642Z,11.70
2018-09-10T04:23:26.549Z,11.70
2018-09-10T04:25:55.201Z,11.80
2018-09-10T04:28:23.026Z,11.90
2018-09-10T04:30:50.956Z,12.00
2018-09-10T04:33:18.876Z,11.90
2018-09-10T04:35:46.792Z,11.80
2018-09-10T04:38:15.023Z,11.70
2018-09-10T04:40:43.084Z,11.70
2018-09-10T04:43:11.875Z,11.80
2018-09-10T04:45:39.803Z,11.80
2018-09-10T04:48:08.073Z,12.00
2018-09-10T04:50:36.005Z,12.10
2018-09-10T04:53:03.894Z,12.10
2018-09-10T04:55:31.949Z,12.10
2018-09-10T04:58:00.439Z,12.00
2018-09-10T05:00:28.344Z,12.00
2018-09-10T05:02:56.308Z,11.90
2018-09-10T05:05:24.249Z,11.90
2018-09-10T05:07:52.867Z,11.90
2018-09-10T05:10:21.267Z,12.00
2018-09-10T05:12:49.323Z,12.10
2018-09-10T05:15:17.252Z,12.10
2018-09-10T05:17:45.204Z,12.10
2018-09-10T05:20:13.154Z,12.20
2018-09-10T05:22:41.375Z,12.40
2018-09-10T05:25:09.300Z,12.50
2018-09-10T05:27:37.231Z,12.70
2018-09-10T05:30:05.291Z,12.70
2018-09-10T05:32:33.541Z,12.80
2018-09-10T05:35:01.490Z,12.90
2018-09-10T05:37:29.413Z,13.10
2018-09-10T05:39:57.755Z,13.20
2018-09-10T05:42:26.651Z,13.30
2018-09-10T05:44:54.582Z,13.30
2018-09-10T05:47:22.514Z,13.40
2018-09-10T05:49:50.946Z,13.50
2018-09-10T05:52:18.899Z,13.50
2018-09-10T05:54:46.803Z,13.60
2018-09-10T05:57:15.055Z,13.70
2018-09-10T05:59:43.027Z,13.70
2018-09-10T06:02:10.967Z,13.80
2018-09-10T06:04:38.876Z,13.90
2018-09-10T06:07:06.819Z,14.10
2018-09-10T06:09:35.160Z,14.40
2018-09-10T06:12:03.098Z,14.70
2018-09-10T06:14:31.016Z,15.10
2018-09-10T06:16:58.961Z,15.10
2018-09-10T06:19:27.701Z,15.20
2018-09-10T06:21:55.756Z,15.30
2018-09-10T06:24:24.671Z,15.50
2018-09-10T06:26:52.604Z,15.80
2018-09-10T06:29:21.235Z,16.20
2018-09-10T06:31:49.203Z,16.30
2018-09-10T06:34:17.396Z,16.40
2018-09-10T06:36:45.306Z,16.40
2018-09-10T06:39:13.265Z,16.60
2018-09-10T06:41:41.891Z,16.70
2018-09-10T06:44:10.569Z,16.70
2018-09-10T06:46:38.950Z,17.10
2018-09-10T06:49:07.774Z,17.20
2018-09-10T06:51:35.759Z,17.40
2018-09-10T06:54:03.725Z,17.60
2018-09-10T06:56:31.694Z,17.60
2018-09-10T06:58:59.615Z,17.70
2018-09-10T07:01:27.519Z,17.80
2018-09-10T07:03:56.358Z,18.00
2018-09-10T07:06:24.298Z,18.10
2018-09-10T07:08:52.194Z,18.20
2018-09-10T07:11:20.142Z,18.40
2018-09-10T07:13:48.128Z,18.60
2018-09-10T07:16:16.737Z,18.60
2018-09-10T07:18:44.787Z,18.80
2018-09-10T07:21:12.715Z,19.00
2018-09-10T07:23:40.615Z,19.00
2018-09-10T07:26:08.537Z,19.10
2018-09-10T07:28:36.442Z,19.20
2018-09-10T07:31:04.416Z,19.20
2018-09-10T07:33:32.350Z,19.40
2018-09-10T07:36:00.259Z,19.40
2018-09-10T07:38:28.186Z,19.60
2018-09-10T07:40:56.840Z,19.80
2018-09-10T08:01:26.265Z,20.60
2018-09-10T08:03:54.800Z,20.70
2018-09-10T08:06:22.710Z,20.60
2018-09-10T08:08:50.648Z,20.90
2018-09-10T08:11:18.719Z,21.10
2018-09-10T08:13:47.268Z,21.20
2018-09-10T08:16:15.426Z,21.30
2018-09-10T08:18:43.400Z,21.50
2018-09-10T08:21:13.077Z,21.50
2018-09-10T08:23:41.047Z,21.60
2018-09-10T08:26:08.973Z,21.60
2018-09-10T08:28:37.073Z,21.70
2018-09-10T08:31:05.452Z,21.80
2018-09-10T08:33:33.347Z,22.00
2018-09-10T08:36:01.309Z,22.30
2018-09-10T08:38:29.302Z,22.40
2018-09-10T08:40:57.288Z,22.40
2018-09-10T08:43:25.247Z,22.70
2018-09-10T08:45:53.209Z,22.80
2018-09-10T08:48:21.199Z,22.70
2018-09-10T08:50:49.103Z,22.90
2018-09-10T08:53:17.086Z,22.90
2018-09-10T08:55:45.910Z,23.20
2018-09-10T08:58:13.737Z,23.50
2018-09-10T09:00:41.674Z,23.40
2018-09-10T09:03:09.574Z,23.30
2018-09-10T09:05:37.510Z,23.40
2018-09-10T09:08:05.581Z,23.40
2018-09-10T09:10:34.127Z,23.40
2018-09-10T09:13:02.069Z,23.80
2018-09-10T09:15:30.705Z,23.80
2018-09-10T09:17:59.336Z,23.90
2018-09-10T09:20:27.288Z,24.20
2018-09-10T09:22:55.798Z,24.30
2018-09-10T09:25:24.076Z,24.20
2018-09-10T09:27:52.807Z,24.30
2018-09-10T09:30:20.910Z,24.40
2018-09-10T09:32:48.774Z,24.50
2018-09-10T09:35:16.762Z,24.90
2018-09-10T09:37:50.176Z,24.90
2018-09-10T09:40:23.746Z,24.80
2018-09-10T09:42:57.271Z,25.00
2018-09-10T09:46:34.966Z,25.00
2018-09-10T09:49:02.928Z,25.20
2018-09-10T09:51:30.853Z,25.00
2018-09-10T09:53:58.773Z,24.80
2018-09-10T09:56:27.057Z,24.80
2018-09-10T09:58:55.899Z,25.10
2018-09-10T10:01:29.357Z,25.10
2018-09-10T10:04:01.852Z,24.90
2018-09-10T10:06:30.060Z,24.90
2018-09-10T10:08:58.925Z,24.80
2018-09-10T10:11:26.838Z,25.20
2018-09-10T10:13:54.752Z,25.20
2018-09-10T10:16:22.697Z,25.30
2018-09-10T10:18:50.678Z,25.60
2018-09-10T10:21:18.624Z,25.40
2018-09-10T10:23:47.150Z,25.40
2018-09-10T10:26:15.065Z,25.30
2018-09-10T10:28:43.567Z,25.30
2018-09-10T10:31:11.488Z,25.40
2018-09-10T10:33:39.405Z,25.40
2018-09-10T10:36:07.413Z,25.40
2018-09-10T10:38:35.331Z,25.40
2018-09-10T10:41:03.509Z,25.80
2018-09-10T10:43:31.435Z,26.10
2018-09-10T10:45:59.392Z,26.00
2018-09-10T10:48:27.309Z,25.90
2018-09-10T10:50:55.330Z,25.80
2018-09-10T10:53:23.233Z,25.70
2018-09-10T10:55:51.429Z,25.60
2018-09-10T10:58:19.403Z,25.60
2018-09-10T11:00:47.395Z,25.60
2018-09-10T11:03:17.655Z,25.60
2018-09-10T11:05:45.587Z,25.60
2018-09-10T11:08:13.717Z,25.80
2018-09-10T11:10:41.661Z,25.90
2018-09-10T11:13:09.640Z,26.00
2018-09-10T11:15:37.550Z,26.00
2018-09-10T11:18:05.729Z,26.20
2018-09-10T11:20:33.639Z,26.30
2018-09-10T11:23:01.539Z,26.50
2018-09-10T11:25:30.145Z,26.40
2018-09-10T11:27:58.090Z,26.50
2018-09-10T11:30:26.015Z,26.60
2018-09-10T11:32:54.011Z,26.70
2018-09-10T11:35:22.328Z,26.90
2018-09-10T11:37:50.286Z,26.80
2018-09-10T11:40:18.301Z,26.70
2018-09-10T11:42:46.223Z,26.70
2018-09-10T11:45:14.118Z,26.60
2018-09-10T11:47:42.798Z,26.50
2018-09-10T11:50:11.390Z,26.60
2018-09-10T11:52:39.483Z,26.80
2018-09-10T11:55:07.472Z,26.80
2018-09-10T11:57:35.371Z,27.00
2018-09-10T12:00:03.758Z,27.00
2018-09-10T12:02:32.554Z,27.00
2018-09-10T12:05:00.557Z,27.00
2018-09-10T12:07:28.647Z,26.80
2018-09-10T12:09:57.115Z,26.70
2018-09-10T12:12:25.052Z,26.70
2018-09-10T12:14:53.014Z,26.60
2018-09-10T12:17:22.625Z,26.70
2018-09-10T12:19:51.241Z,26.80
2018-09-10T12:22:19.697Z,26.80
2018-09-10T12:24:47.625Z,26.80
2018-09-10T12:27:15.540Z,26.80
2018-09-10T12:29:43.387Z,26.90
2018-09-10T12:32:11.324Z,26.90
2018-09-10T12:34:39.256Z,27.00
2018-09-10T12:37:07.175Z,27.10
2018-09-10T12:39:35.101Z,27.20
2018-09-10T12:42:03.022Z,27.40
2018-09-10T12:44:31.851Z,27.70
2018-09-10T12:46:59.891Z,28.10
2018-09-10T12:49:28.575Z,28.20
2018-09-10T12:51:56.483Z,28.20
2018-09-10T12:54:24.397Z,28.40
2018-09-10T12:56:52.291Z,28.50
2018-09-10T12:59:20.195Z,28.70
2018-09-10T13:01:48.152Z,28.60
2018-09-10T13:04:16.106Z,28.20
2018-09-10T13:06:43.953Z,27.80
2018-09-10T13:09:11.884Z,27.40
2018-09-10T13:11:39.857Z,27.10
2018-09-10T13:14:07.776Z,26.90
2018-09-10T13:16:36.284Z,26.80
2018-09-10T13:19:04.236Z,26.60
2018-09-10T13:21:32.154Z,26.50
2018-09-10T13:24:00.337Z,26.50
2018-09-10T13:26:28.233Z,26.40
2018-09-10T13:28:56.620Z,26.50
2018-09-10T13:31:25.342Z,26.70
2018-09-10T13:33:53.329Z,26.80
2018-09-10T13:36:22.106Z,26.60
2018-09-10T13:38:50.165Z,26.60
2018-09-10T13:41:18.087Z,26.60
2018-09-10T13:43:45.993Z,26.60
2018-09-10T13:46:13.961Z,26.60
2018-09-10T13:48:41.836Z,26.50
2018-09-10T13:51:09.728Z,26.40
2018-09-10T13:53:37.922Z,26.30
2018-09-10T13:56:05.871Z,26.30
2018-09-10T13:58:33.777Z,26.20
2018-09-10T14:01:01.711Z,26.20
2018-09-10T14:03:29.631Z,26.30
2018-09-10T14:05:57.555Z,26.40
2018-09-10T14:08:25.482Z,26.40
2018-09-10T14:10:54.185Z,26.40
2018-09-10T14:13:22.113Z,26.20
2018-09-10T14:15:50.292Z,26.30
2018-09-10T14:18:18.264Z,26.20
2018-09-10T14:20:46.167Z,26.20
2018-09-10T14:23:14.133Z,26.20
2018-09-10T14:25:42.093Z,26.40
2018-09-10T14:28:10.061Z,26.30
2018-09-10T14:30:37.965Z,26.40
2018-09-10T14:33:06.212Z,26.50
2018-09-10T14:35:34.179Z,26.50
2018-09-10T14:38:02.061Z,26.60
2018-09-10T14:40:29.922Z,26.60
2018-09-10T14:42:57.820Z,26.70
2018-09-10T14:45:25.712Z,26.60
2018-09-10T14:47:53.642Z,26.60
2018-09-10T14:50:22.319Z,26.60
2018-09-10T14:52:50.502Z,26.50
2018-09-10T14:55:18.697Z,26.50
2018-09-10T14:57:46.614Z,26.50
2018-09-10T15:00:20.223Z,26.50
2018-09-10T15:02:48.204Z,26.50
2018-09-10T15:05:16.164Z,26.50
2018-09-10T15:07:44.411Z,26.60
2018-09-10T15:10:12.324Z,26.70
2018-09-10T15:12:40.526Z,26.80
2018-09-10T15:15:08.838Z,26.80
2018-09-10T15:17:36.767Z,27.00
2018-09-10T15:20:04.851Z,27.00
2018-09-10T15:22:32.878Z,27.00
2018-09-10T15:25:00.764Z,27.00
2018-09-10T15:27:28.637Z,26.90
2018-09-10T15:29:56.569Z,26.90
2018-09-10T15:32:24.434Z,26.80
2018-09-10T15:34:52.659Z,26.60
2018-09-10T15:37:21.121Z,26.60
2018-09-10T15:39:49.055Z,26.70
2018-09-10T15:42:16.967Z,26.60
2018-09-10T15:44:45.264Z,26.50
2018-09-10T15:47:13.178Z,26.50
2018-09-10T15:49:41.107Z,26.50
2018-09-10T15:52:09.034Z,26.60
2018-09-10T15:54:36.946Z,26.60
2018-09-10T15:57:04.886Z,26.60
2018-09-10T15:59:32.804Z,26.50
2018-09-10T16:02:00.702Z,26.40
2018-09-10T16:04:29.247Z,26.30
2018-09-10T16:06:57.164Z,26.10
2018-09-10T16:09:25.092Z,26.00
2018-09-10T16:11:53.005Z,25.90
2018-09-10T16:14:20.999Z,25.90
2018-09-10T16:16:49.332Z,25.80
2018-09-10T16:19:17.525Z,25.90
2018-09-10T16:21:45.433Z,25.90
2018-09-10T16:24:13.465Z,26.00
2018-09-10T16:26:41.348Z,26.10
2018-09-10T16:29:09.210Z,26.10
2018-09-10T16:31:37.399Z,26.10
2018-09-10T16:34:05.273Z,26.00
2018-09-10T16:36:33.137Z,26.00
2018-09-10T16:39:00.978Z,25.90
2018-09-10T16:41:28.881Z,25.80
2018-09-10T16:43:56.766Z,25.70
2018-09-10T16:46:25.302Z,25.60
2018-09-10T16:48:53.194Z,25.50
2018-09-10T16:51:21.130Z,25.30
2018-09-10T16:53:49.006Z,25.30
2018-09-10T16:56:16.885Z,25.30
2018-09-10T16:58:45.124Z,25.10
2018-09-10T17:01:13.140Z,25.00
2018-09-10T17:03:41.058Z,24.90
2018-09-10T17:06:08.922Z,24.70
2018-09-10T17:08:36.824Z,24.60
2018-09-10T17:11:06.061Z,24.50
2018-09-10T17:13:34.035Z,24.30
2018-09-10T17:16:01.937Z,24.20
2018-09-10T17:18:30.168Z,24.10
2018-09-10T17:20:58.199Z,24.00
2018-09-10T17:23:26.516Z,23.90
2018-09-10T17:25:55.179Z,23.90
2018-09-10T17:28:23.717Z,23.90
2018-09-10T17:30:52.751Z,23.70
2018-09-10T17:33:21.047Z,23.50
2018-09-10T17:35:49.334Z,23.40
2018-09-10T17:38:17.658Z,23.20
2018-09-10T17:40:46.340Z,23.10
2018-09-10T17:43:14.908Z,23.00
2018-09-10T17:45:43.767Z,22.80
2018-09-10T17:48:12.049Z,22.70
2018-09-10T17:50:41.195Z,22.60
2018-09-10T17:53:10.055Z,22.40
2018-09-10T17:55:37.997Z,22.20
2018-09-10T17:58:06.044Z,21.90
2018-09-10T18:00:38.634Z,22.00
2018-09-10T18:03:07.951Z,21.90
2018-09-10T18:05:35.869Z,21.80
2018-09-10T18:08:03.812Z,21.70
2018-09-10T18:10:32.659Z,21.70
2018-09-10T18:13:01.061Z,21.70
2018-09-10T18:15:30.217Z,21.60
2018-09-10T18:17:58.283Z,21.50
2018-09-10T18:20:26.852Z,21.40
2018-09-10T18:22:56.520Z,21.40
2018-09-10T18:25:25.364Z,21.30
2018-09-10T18:27:53.586Z,21.20
2018-09-10T18:30:21.731Z,21.10
2018-09-10T18:32:49.671Z,21.10
2018-09-10T18:35:18.216Z,21.10
2018-09-10T18:37:47.283Z,21.10
2018-09-10T18:40:16.239Z,21.00
2018-09-10T18:42:46.071Z,21.00
2018-09-10T18:45:15.289Z,21.10
2018-09-10T18:47:43.874Z,21.00
2018-09-10T18:50:12.218Z,21.00
2018-09-10T18:52:43.509Z,20.90
2018-09-10T18:55:12.547Z,20.90
2018-09-10T18:57:42.913Z,20.80
2018-09-10T19:00:12.587Z,20.80
2018-09-10T19:02:42.194Z,20.90
2018-09-10T19:05:10.390Z,20.80
2018-09-10T19:07:40.196Z,20.80
2018-09-10T19:10:09.450Z,20.80
2018-09-10T19:12:37.763Z,20.70
2018-09-10T19:15:07.017Z,20.60
2018-09-10T19:17:35.619Z,20.50
2018-09-10T19:20:03.762Z,20.50
2018-09-10T19:22:32.596Z,20.40
2018-09-10T19:25:00.677Z,20.30
2018-09-10T19:27:29.286Z,20.30
2018-09-10T19:29:58.073Z,20.30
2018-09-10T19:32:26.235Z,20.20
2018-09-10T19:34:54.410Z,20.10
2018-09-10T19:37:22.673Z,20.10
2018-09-10T19:39:51.016Z,20.10
2018-09-10T19:42:19.254Z,20.10
2018-09-10T19:44:49.457Z,20.20
2018-09-10T19:47:17.530Z,20.20
2018-09-10T19:49:46.171Z,20.20
2018-09-10T19:52:14.742Z,20.10
2018-09-10T19:54:42.693Z,20.10
2018-09-10T19:57:10.759Z,20.00
2018-09-10T19:59:39.342Z,19.80
2018-09-10T20:02:08.002Z,19.70
2018-09-10T20:04:36.326Z,19.70
2018-09-10T20:07:04.617Z,19.60
2018-09-10T20:09:32.505Z,19.60
2018-09-10T20:12:00.479Z,19.60
2018-09-10T20:14:29.329Z,19.50
2018-09-10T20:16:57.312Z,19.40
2018-09-10T20:19:25.895Z,19.30
2018-09-10T20:21:53.921Z,19.30
2018-09-10T20:24:21.846Z,19.20
2018-09-10T20:26:49.815Z,19.30
2018-09-10T20:29:17.756Z,19.20
2018-09-10T20:31:46.275Z,19.20
2018-09-10T20:34:14.177Z,19.30
2018-09-10T20:36:42.172Z,19.20
2018-09-10T20:39:11.487Z,19.30
2018-09-10T20:41:39.516Z,19.20
2018-09-10T20:44:07.518Z,19.10
2018-09-10T20:46:35.724Z,19.10
2018-09-10T20:49:03.693Z,19.00
2018-09-10T20:51:31.598Z,19.00
2018-09-10T20:53:59.492Z,19.00
2018-09-10T20:56:27.372Z,19.00
2018-09-10T20:58:55.266Z,18.90
2018-09-10T21:01:23.184Z,18.90
2018-09-10T21:03:51.193Z,18.90
2018-09-10T21:06:19.656Z,18.80
2018-09-10T21:08:47.709Z,18.80
2018-09-10T21:11:15.589Z,18.70
2018-09-10T21:13:43.467Z,18.60
2018-09-10T21:16:11.400Z,18.60
2018-09-10T21:18:39.305Z,18.60
2018-09-10T21:21:07.244Z,18.60
2018-09-10T21:23:35.154Z,18.60
2018-09-10T21:26:03.085Z,18.50
2018-09-10T21:28:31.014Z,18.40
2018-09-10T21:30:58.911Z,18.30
2018-09-10T21:33:27.117Z,18.30
2018-09-10T21:35:55.020Z,18.20
2018-09-10T21:38:22.937Z,18.20
2018-09-10T21:40:50.926Z,18.40
2018-09-10T21:43:19.461Z,18.30
2018-09-10T21:45:47.391Z,18.40
2018-09-10T21:48:15.274Z,18.30
2018-09-10T21:50:43.253Z,18.30
2018-09-10T21:53:11.126Z,18.30
2018-09-10T21:55:39.001Z,18.20
2018-09-10T21:58:06.931Z,18.20
2018-09-10T22:00:34.833Z,18.20
2018-09-10T22:03:03.004Z,18.20
2018-09-10T22:05:30.943Z,18.20
2018-09-10T22:07:58.844Z,18.20
2018-09-10T22:10:26.749Z,18.30
2018-09-10T22:12:55.029Z,18.30
2018-09-10T22:15:22.960Z,18.40
2018-09-10T22:17:50.916Z,18.40
2018-09-10T22:20:18.813Z,18.40
2018-09-10T22:22:46.754Z,18.30
2018-09-10T22:25:14.721Z,18.40
2018-09-10T22:27:42.619Z,18.40
2018-09-10T22:30:10.572Z,18.40
2018-09-10T22:32:38.491Z,18.30
2018-09-10T22:35:06.898Z,18.30
2018-09-10T22:37:34.799Z,18.30
2018-09-10T22:40:02.701Z,18.30
2018-09-10T22:42:30.621Z,18.20
2018-09-10T22:44:58.488Z,18.20
2018-09-10T22:47:26.390Z,18.10
2018-09-10T22:49:54.315Z,18.10
2018-09-10T22:52:22.831Z,18.20
2018-09-10T22:54:50.692Z,18.20
2018-09-10T22:57:18.593Z,18.30
2018-09-10T22:59:46.507Z,18.30
2018-09-10T23:02:15.079Z,18.10
2018-09-10T23:04:42.948Z,18.10
2018-09-10T23:07:10.800Z,18.00
2018-09-10T23:09:38.988Z,18.00
2018-09-10T23:12:06.857Z,18.10
2018-09-10T23:14:34.754Z,18.10
2018-09-10T23:17:02.739Z,18.10
2018-09-10T23:19:30.610Z,18.00
2018-09-10T23:21:58.858Z,18.20
2018-09-10T23:24:26.724Z,18.30
2018-09-10T23:26:54.581Z,18.30
2018-09-10T23:29:22.496Z,18.40
2018-09-10T23:31:50.371Z,18.30
2018-09-10T23:34:18.272Z,18.20
2018-09-10T23:36:46.158Z,18.20
2018-09-10T23:39:14.045Z,18.10
2018-09-10T23:41:41.954Z,18.10
2018-09-10T23:44:10.202Z,18.00
2018-09-10T23:46:38.092Z,17.90
2018-09-10T23:49:05.981Z,18.00
2018-09-10T23:51:33.829Z,17.90
2018-09-10T23:54:01.717Z,18.10
2018-09-10T23:56:29.675Z,18.20
2018-09-10T23:58:57.557Z,18.30
